sensor_id;sensor_type;location;lat;lon;timestamp;P1;durP1;ratioP1;P2;durP2;ratioP2
19560;SDS011;9927;47.792;10.616;2022-11-15T04:02:23;11.00;;;7.33;;
19560;SDS011;9927;47.792;10.616;2022-11-15T04:04:50;11.83;;;7.20;;
19560;SDS011;9927;47.792;10.616;2022-11-15T04:07:17;12.50;;;7.33;;
19560;SDS011;9927;47.792;10.616;2022-11-15T04:09:45;6.70;;;5.87;;
19560;SDS011;9927;47.792;10.616;2022-11-15T04:12:34;15.83;;;7.33;;
19560;SDS011;9927;47.792;10.616;2022-11-15T04:15:04;12.63;;;7.53;;
19560;SDS011;9927;47.792;10.616;2022-11-15T04:17:45;11.20;;;6.97;;
19560;SDS011;9927;47.792;10.616;2022-11-15T04:20:21;7.33;;;6.10;;
19560;SDS011;9927;47.792;10.616;2022-11-15T04:23:10;19.83;;;8.40;;
19560;SDS011;9927;47.792;10.616;2022-11-15T04:25:58;11.37;;;6.47;;
19560;SDS011;9927;47.792;10.616;2022-11-15T04:28:27;10.77;;;6.53;;
19560;SDS011;9927;47.792;10.616;2022-11-15T04:30:55;11.20;;;7.00;;
19560;SDS011;9927;47.792;10.616;2022-11-15T04:33:22;13.13;;;7.03;;
19560;SDS011;9927;47.792;10.616;2022-11-15T04:35:49;11.67;;;6.60;;
19560;SDS011;9927;47.792;10.616;2022-11-15T04:38:36;10.40;;;6.50;;
19560;SDS011;9927;47.792;10.616;2022-11-15T04:41:03;10.87;;;6.70;;
19560;SDS011;9927;47.792;10.616;2022-11-15T04:43:30;11.33;;;6.10;;
19560;SDS011;9927;47.792;10.616;2022-11-15T04:45:58;15.53;;;7.10;;
19560;SDS011;9927;47.792;10.616;2022-11-15T04:48:25;13.73;;;7.40;;
19560;SDS011;9927;47.792;10.616;2022-11-15T04:50:52;12.23;;;7.13;;
19560;SDS011;9927;47.792;10.616;2022-11-15T04:53:20;15.43;;;7.87;;
19560;SDS011;9927;47.792;10.616;2022-11-15T04:55:47;12.67;;;7.23;;
19560;SDS011;9927;47.792;10.616;2022-11-15T04:58:14;11.30;;;7.67;;
19560;SDS011;9927;47.792;10.616;2022-11-15T05:00:41;16.10;;;8.73;;
19560;SDS011;9927;47.792;10.616;2022-11-15T05:03:09;13.87;;;10.20;;
19560;SDS011;9927;47.792;10.616;2022-11-15T05:05:56;16.27;;;9.37;;
19560;SDS011;9927;47.792;10.616;2022-11-15T05:08:25;12.47;;;7.97;;
19560;SDS011;9927;47.792;10.616;2022-11-15T05:10:52;18.50;;;8.63;;
19560;SDS011;9927;47.792;10.616;2022-11-15T05:13:20;12.40;;;7.73;;
19560;SDS011;9927;47.792;10.616;2022-11-15T05:15:47;10.77;;;6.77;;
19560;SDS011;9927;47.792;10.616;2022-11-15T05:18:14;11.57;;;6.27;;
19560;SDS011;9927;47.792;10.616;2022-11-15T05:20:49;12.43;;;7.03;;
19560;SDS011;9927;47.792;10.616;2022-11-15T05:23:16;13.07;;;7.03;;
19560;SDS011;9927;47.792;10.616;2022-11-15T05:25:43;10.17;;;6.63;;
19560;SDS011;9927;47.792;10.616;2022-11-15T05:28:10;11.50;;;7.07;;
19560;SDS011;9927;47.792;10.616;2022-11-15T05:30:37;9.10;;;6.60;;
19560;SDS011;9927;47.792;10.616;2022-11-15T05:33:04;10.53;;;6.87;;
19560;SDS011;9927;47.792;10.616;2022-11-15T05:35:37;10.90;;;6.70;;
19560;SDS011;9927;47.792;10.616;2022-11-15T05:38:06;9.57;;;6.80;;
19560;SDS011;9927;47.792;10.616;2022-11-15T05:40:34;10.93;;;6.50;;
19560;SDS011;9927;47.792;10.616;2022-11-15T05:43:01;10.07;;;6.87;;
19560;SDS011;9927;47.792;10.616;2022-11-15T05:45:31;11.57;;;7.10;;
19560;SDS011;9927;47.792;10.616;2022-11-15T05:48:00;9.87;;;7.40;;
19560;SDS011;9927;47.792;10.616;2022-11-15T05:50:34;13.70;;;7.60;;
19560;SDS011;9927;47.792;10.616;2022-11-15T05:53:04;14.33;;;8.47;;
19560;SDS011;9927;47.792;10.616;2022-11-15T05:55:32;12.07;;;7.70;;
19560;SDS011;9927;47.792;10.616;2022-11-15T05:58:00;17.47;;;8.40;;
19560;SDS011;9927;47.792;10.616;2022-11-15T06:00:28;12.40;;;7.57;;
19560;SDS011;9927;47.792;10.616;2022-11-15T06:02:55;10.40;;;7.07;;
19560;SDS011;9927;47.792;10.616;2022-11-15T06:05:22;10.87;;;6.57;;
19560;SDS011;9927;47.792;10.616;2022-11-15T06:07:49;6.30;;;5.80;;
19560;SDS011;9927;47.792;10.616;2022-11-15T06:10:17;13.00;;;7.37;;
19560;SDS011;9927;47.792;10.616;2022-11-15T06:12:44;13.57;;;7.40;;
19560;SDS011;9927;47.792;10.616;2022-11-15T06:15:11;14.83;;;7.53;;
19560;SDS011;9927;47.792;10.616;2022-11-15T06:17:38;15.63;;;7.73;;
19560;SDS011;9927;47.792;10.616;2022-11-15T06:20:05;14.20;;;7.90;;
19560;SDS011;9927;47.792;10.616;2022-11-15T06:22:33;18.30;;;7.97;;
19560;SDS011;9927;47.792;10.616;2022-11-15T06:25:00;16.77;;;9.17;;
19560;SDS011;9927;47.792;10.616;2022-11-15T06:27:31;17.27;;;8.77;;
19560;SDS011;9927;47.792;10.616;2022-11-15T06:29:58;9.27;;;7.37;;
19560;SDS011;9927;47.792;10.616;2022-11-15T06:32:25;15.50;;;7.83;;
19560;SDS011;9927;47.792;10.616;2022-11-15T06:34:53;16.63;;;8.03;;
19560;SDS011;9927;47.792;10.616;2022-11-15T06:37:20;16.17;;;9.27;;
19560;SDS011;9927;47.792;10.616;2022-11-15T06:39:47;16.50;;;9.20;;
19560;SDS011;9927;47.792;10.616;2022-11-15T06:42:14;15.20;;;8.87;;
19560;SDS011;9927;47.792;10.616;2022-11-15T06:44:41;15.60;;;8.27;;
19560;SDS011;9927;47.792;10.616;2022-11-15T06:47:08;12.70;;;8.40;;
19560;SDS011;9927;47.792;10.616;2022-11-15T06:49:36;19.43;;;9.37;;
19560;SDS011;9927;47.792;10.616;2022-11-15T06:52:03;16.27;;;8.40;;
19560;SDS011;9927;47.792;10.616;2022-11-15T06:54:30;14.87;;;7.90;;
19560;SDS011;9927;47.792;10.616;2022-11-15T06:56:58;16.67;;;8.63;;
19560;SDS011;9927;47.792;10.616;2022-11-15T06:59:25;14.50;;;7.73;;
19560;SDS011;9927;47.792;10.616;2022-11-15T07:01:52;20.27;;;8.67;;
19560;SDS011;9927;47.792;10.616;2022-11-15T07:04:19;12.63;;;7.67;;
19560;SDS011;9927;47.792;10.616;2022-11-15T07:06:47;17.03;;;10.07;;
19560;SDS011;9927;47.792;10.616;2022-11-15T07:09:14;17.17;;;9.50;;
19560;SDS011;9927;47.792;10.616;2022-11-15T07:11:42;19.53;;;9.53;;
19560;SDS011;9927;47.792;10.616;2022-11-15T07:14:09;17.47;;;9.30;;
19560;SDS011;9927;47.792;10.616;2022-11-15T07:16:36;15.63;;;9.03;;
19560;SDS011;9927;47.792;10.616;2022-11-15T07:19:04;12.73;;;8.27;;
19560;SDS011;9927;47.792;10.616;2022-11-15T07:21:32;14.43;;;8.70;;
19560;SDS011;9927;47.792;10.616;2022-11-15T07:23:59;12.47;;;8.57;;
19560;SDS011;9927;47.792;10.616;2022-11-15T07:26:26;14.10;;;8.07;;
19560;SDS011;9927;47.792;10.616;2022-11-15T07:28:54;13.07;;;7.93;;
19560;SDS011;9927;47.792;10.616;2022-11-15T07:31:21;11.63;;;8.30;;
19560;SDS011;9927;47.792;10.616;2022-11-15T07:33:49;12.67;;;8.33;;
19560;SDS011;9927;47.792;10.616;2022-11-15T07:36:16;11.33;;;7.87;;
19560;SDS011;9927;47.792;10.616;2022-11-15T07:38:43;14.80;;;8.47;;
19560;SDS011;9927;47.792;10.616;2022-11-15T07:41:10;14.13;;;8.27;;
19560;SDS011;9927;47.792;10.616;2022-11-15T07:43:38;16.03;;;8.23;;
19560;SDS011;9927;47.792;10.616;2022-11-15T07:46:06;13.63;;;8.20;;
19560;SDS011;9927;47.792;10.616;2022-11-15T07:48:36;13.07;;;8.20;;
19560;SDS011;9927;47.792;10.616;2022-11-15T07:51:13;18.20;;;8.43;;
19560;SDS011;9927;47.792;10.616;2022-11-15T07:53:41;14.57;;;8.57;;
19560;SDS011;9927;47.792;10.616;2022-11-15T07:56:09;22.93;;;8.83;;
19560;SDS011;9927;47.792;10.616;2022-11-15T07:58:37;20.47;;;8.13;;
19560;SDS011;9927;47.792;10.616;2022-11-15T08:01:05;18.67;;;9.90;;
19560;SDS011;9927;47.792;10.616;2022-11-15T08:03:33;15.47;;;8.90;;
19560;SDS011;9927;47.792;10.616;2022-11-15T08:06:01;16.83;;;8.80;;
19560;SDS011;9927;47.792;10.616;2022-11-15T08:08:29;12.40;;;7.50;;
19560;SDS011;9927;47.792;10.616;2022-11-15T08:10:59;13.60;;;8.27;;
19560;SDS011;9927;47.792;10.616;2022-11-15T08:13:27;17.03;;;9.60;;
19560;SDS011;9927;47.792;10.616;2022-11-15T08:15:58;15.30;;;8.90;;
19560;SDS011;9927;47.792;10.616;2022-11-15T08:18:26;15.27;;;8.80;;
19560;SDS011;9927;47.792;10.616;2022-11-15T08:20:57;18.30;;;9.83;;
19560;SDS011;9927;47.792;10.616;2022-11-15T08:23:26;16.03;;;8.80;;
19560;SDS011;9927;47.792;10.616;2022-11-15T08:25:58;13.13;;;8.10;;
19560;SDS011;9927;47.792;10.616;2022-11-15T08:28:27;16.23;;;8.17;;
19560;SDS011;9927;47.792;10.616;2022-11-15T08:30:54;13.83;;;8.17;;
19560;SDS011;9927;47.792;10.616;2022-11-15T08:33:21;12.33;;;7.90;;
19560;SDS011;9927;47.792;10.616;2022-11-15T08:35:49;12.27;;;7.17;;
19560;SDS011;9927;47.792;10.616;2022-11-15T08:38:16;11.53;;;8.10;;
19560;SDS011;9927;47.792;10.616;2022-11-15T08:40:43;13.70;;;7.40;;
19560;SDS011;9927;47.792;10.616;2022-11-15T08:43:10;11.83;;;8.00;;
19560;SDS011;9927;47.792;10.616;2022-11-15T08:45:37;15.80;;;7.90;;
19560;SDS011;9927;47.792;10.616;2022-11-15T08:48:05;10.43;;;7.80;;
19560;SDS011;9927;47.792;10.616;2022-11-15T08:50:32;14.53;;;7.47;;
19560;SDS011;9927;47.792;10.616;2022-11-15T08:53:06;15.07;;;9.00;;
19560;SDS011;9927;47.792;10.616;2022-11-15T08:55:38;10.83;;;7.40;;
19560;SDS011;9927;47.792;10.616;2022-11-15T08:58:06;11.60;;;7.30;;
19560;SDS011;9927;47.792;10.616;2022-11-15T09:00:33;15.37;;;7.00;;
19560;SDS011;9927;47.792;10.616;2022-11-15T09:03:03;12.67;;;7.07;;
19560;SDS011;9927;47.792;10.616;2022-11-15T09:05:31;16.30;;;11.70;;
19560;SDS011;9927;47.792;10.616;2022-11-15T09:07:59;12.73;;;8.30;;
19560;SDS011;9927;47.792;10.616;2022-11-15T09:10:29;15.07;;;7.67;;
19560;SDS011;9927;47.792;10.616;2022-11-15T09:12:57;14.43;;;7.87;;
19560;SDS011;9927;47.792;10.616;2022-11-15T09:15:24;10.53;;;6.77;;
19560;SDS011;9927;47.792;10.616;2022-11-15T09:17:51;8.90;;;6.60;;
19560;SDS011;9927;47.792;10.616;2022-11-15T09:20:18;12.80;;;8.27;;
19560;SDS011;9927;47.792;10.616;2022-11-15T09:22:46;12.77;;;7.47;;
19560;SDS011;9927;47.792;10.616;2022-11-15T09:25:13;11.10;;;7.07;;
19560;SDS011;9927;47.792;10.616;2022-11-15T09:27:40;12.80;;;7.27;;
19560;SDS011;9927;47.792;10.616;2022-11-15T09:30:07;9.80;;;6.90;;
19560;SDS011;9927;47.792;10.616;2022-11-15T09:32:35;10.00;;;6.50;;
19560;SDS011;9927;47.792;10.616;2022-11-15T09:35:05;9.23;;;5.90;;
19560;SDS011;9927;47.792;10.616;2022-11-15T09:37:32;6.90;;;5.67;;
19560;SDS011;9927;47.792;10.616;2022-11-15T09:39:59;6.73;;;6.10;;
19560;SDS011;9927;47.792;10.616;2022-11-15T09:42:48;8.53;;;6.00;;
19560;SDS011;9927;47.792;10.616;2022-11-15T09:51:33;10.97;;;6.70;;
19560;SDS011;9927;47.792;10.616;2022-11-15T09:54:04;8.50;;;5.93;;
19560;SDS011;9927;47.792;10.616;2022-11-15T09:56:55;10.03;;;6.23;;
19560;SDS011;9927;47.792;10.616;2022-11-15T10:05:10;9.98;;;6.00;;
19560;SDS011;9927;47.792;10.616;2022-11-15T10:07:45;6.23;;;5.20;;
19560;SDS011;9927;47.792;10.616;2022-11-15T10:12:50;8.13;;;5.90;;
19560;SDS011;9927;47.792;10.616;2022-11-15T10:15:19;7.50;;;5.70;;
19560;SDS011;9927;47.792;10.616;2022-11-15T10:17:55;8.40;;;5.43;;
19560;SDS011;9927;47.792;10.616;2022-11-15T10:20:34;10.45;;;5.90;;
19560;SDS011;9927;47.792;10.616;2022-11-15T10:23:13;7.68;;;6.18;;
19560;SDS011;9927;47.792;10.616;2022-11-15T10:25:42;10.60;;;5.90;;
19560;SDS011;9927;47.792;10.616;2022-11-15T10:28:21;7.23;;;5.87;;
19560;SDS011;9927;47.792;10.616;2022-11-15T10:30:53;6.37;;;5.30;;
19560;SDS011;9927;47.792;10.616;2022-11-15T10:33:32;6.00;;;5.32;;
19560;SDS011;9927;47.792;10.616;2022-11-15T10:46:33;8.35;;;5.00;;
19560;SDS011;9927;47.792;10.616;2022-11-15T10:49:21;9.65;;;5.47;;
19560;SDS011;9927;47.792;10.616;2022-11-15T10:51:52;8.10;;;5.53;;
19560;SDS011;9927;47.792;10.616;2022-11-15T10:54:30;7.45;;;5.70;;
19560;SDS011;9927;47.792;10.616;2022-11-15T10:57:00;6.80;;;5.23;;
19560;SDS011;9927;47.792;10.616;2022-11-15T10:59:53;7.32;;;5.50;;
19560;SDS011;9927;47.792;10.616;2022-11-15T11:02:39;8.90;;;5.80;;
19560;SDS011;9927;47.792;10.616;2022-11-15T11:05:29;8.60;;;5.85;;
19560;SDS011;9927;47.792;10.616;2022-11-15T11:10:51;7.80;;;4.45;;
19560;SDS011;9927;47.792;10.616;2022-11-15T11:13:28;7.38;;;4.80;;
19560;SDS011;9927;47.792;10.616;2022-11-15T11:16:16;6.72;;;4.40;;
19560;SDS011;9927;47.792;10.616;2022-11-15T11:24:33;8.73;;;4.53;;
19560;SDS011;9927;47.792;10.616;2022-11-15T11:27:17;7.32;;;4.68;;
19560;SDS011;9927;47.792;10.616;2022-11-15T11:42:06;6.80;;;4.03;;
19560;SDS011;9927;47.792;10.616;2022-11-15T11:46:59;7.25;;;4.32;;
19560;SDS011;9927;47.792;10.616;2022-11-15T11:49:51;5.38;;;4.38;;
19560;SDS011;9927;47.792;10.616;2022-11-15T11:57:51;5.70;;;4.10;;
19560;SDS011;9927;47.792;10.616;2022-11-15T12:00:21;5.95;;;4.40;;
19560;SDS011;9927;47.792;10.616;2022-11-15T12:03:09;8.90;;;4.78;;
19560;SDS011;9927;47.792;10.616;2022-11-15T12:05:52;8.80;;;5.65;;
19560;SDS011;9927;47.792;10.616;2022-11-15T12:11:17;7.00;;;4.20;;
19560;SDS011;9927;47.792;10.616;2022-11-15T12:13:50;5.72;;;4.47;;
19560;SDS011;9927;47.792;10.616;2022-11-15T12:16:28;4.68;;;3.97;;
19560;SDS011;9927;47.792;10.616;2022-11-15T12:19:01;5.55;;;4.13;;
19560;SDS011;9927;47.792;10.616;2022-11-15T12:24:26;4.55;;;4.05;;
19560;SDS011;9927;47.792;10.616;2022-11-15T12:27:16;7.38;;;4.22;;
19560;SDS011;9927;47.792;10.616;2022-11-15T12:30:00;5.75;;;4.25;;
19560;SDS011;9927;47.792;10.616;2022-11-15T12:32:38;5.75;;;4.05;;
19560;SDS011;9927;47.792;10.616;2022-11-15T12:35:21;5.00;;;4.20;;
19560;SDS011;9927;47.792;10.616;2022-11-15T12:37:55;4.60;;;4.07;;
19560;SDS011;9927;47.792;10.616;2022-11-15T12:40:30;8.13;;;4.50;;
19560;SDS011;9927;47.792;10.616;2022-11-15T12:45:45;6.53;;;4.20;;
19560;SDS011;9927;47.792;10.616;2022-11-15T13:12:03;4.03;;;3.58;;
19560;SDS011;9927;47.792;10.616;2022-11-15T13:14:38;4.13;;;3.53;;
19560;SDS011;9927;47.792;10.616;2022-11-15T13:19:47;3.60;;;3.30;;
19560;SDS011;9927;47.792;10.616;2022-11-15T13:22:19;4.30;;;3.72;;
19560;SDS011;9927;47.792;10.616;2022-11-15T13:25:14;5.75;;;3.80;;
19560;SDS011;9927;47.792;10.616;2022-11-15T13:27:59;3.53;;;3.25;;
19560;SDS011;9927;47.792;10.616;2022-11-15T13:30:34;8.05;;;4.20;;
19560;SDS011;9927;47.792;10.616;2022-11-15T13:33:19;6.78;;;4.80;;
19560;SDS011;9927;47.792;10.616;2022-11-15T13:35:50;4.13;;;3.85;;
19560;SDS011;9927;47.792;10.616;2022-11-15T13:40:53;4.75;;;4.20;;
19560;SDS011;9927;47.792;10.616;2022-11-15T13:48:36;4.00;;;3.75;;
19560;SDS011;9927;47.792;10.616;2022-11-15T13:51:05;6.78;;;4.30;;
19560;SDS011;9927;47.792;10.616;2022-11-15T13:53:50;8.57;;;4.55;;
19560;SDS011;9927;47.792;10.616;2022-11-15T13:56:51;6.90;;;4.60;;
19560;SDS011;9927;47.792;10.616;2022-11-15T14:01:53;6.40;;;5.20;;
19560;SDS011;9927;47.792;10.616;2022-11-15T14:04:22;6.38;;;4.93;;
19560;SDS011;9927;47.792;10.616;2022-11-15T14:06:53;5.57;;;4.10;;
19560;SDS011;9927;47.792;10.616;2022-11-15T14:11:58;5.13;;;4.57;;
19560;SDS011;9927;47.792;10.616;2022-11-15T14:14:26;5.20;;;4.38;;
19560;SDS011;9927;47.792;10.616;2022-11-15T14:16:58;6.55;;;4.63;;
19560;SDS011;9927;47.792;10.616;2022-11-15T14:24:39;6.60;;;5.10;;
19560;SDS011;9927;47.792;10.616;2022-11-15T14:29:44;8.73;;;5.40;;
19560;SDS011;9927;47.792;10.616;2022-11-15T14:32:14;7.43;;;5.78;;
19560;SDS011;9927;47.792;10.616;2022-11-15T14:34:43;5.63;;;5.03;;
19560;SDS011;9927;47.792;10.616;2022-11-15T14:37:30;7.38;;;5.50;;
19560;SDS011;9927;47.792;10.616;2022-11-15T14:40:01;6.00;;;5.32;;
19560;SDS011;9927;47.792;10.616;2022-11-15T14:42:30;7.97;;;5.40;;
19560;SDS011;9927;47.792;10.616;2022-11-15T14:44:58;7.45;;;5.63;;
19560;SDS011;9927;47.792;10.616;2022-11-15T14:47:25;6.95;;;5.72;;
19560;SDS011;9927;47.792;10.616;2022-11-15T14:49:52;7.65;;;5.55;;
19560;SDS011;9927;47.792;10.616;2022-11-15T14:52:27;6.32;;;5.32;;
19560;SDS011;9927;47.792;10.616;2022-11-15T14:54:59;6.90;;;5.50;;
19560;SDS011;9927;47.792;10.616;2022-11-15T14:57:29;7.70;;;5.93;;
19560;SDS011;9927;47.792;10.616;2022-11-15T14:59:56;8.70;;;5.38;;
19560;SDS011;9927;47.792;10.616;2022-11-15T15:02:25;7.38;;;5.28;;
19560;SDS011;9927;47.792;10.616;2022-11-15T15:04:53;6.10;;;5.30;;
19560;SDS011;9927;47.792;10.616;2022-11-15T15:07:20;5.07;;;4.78;;
19560;SDS011;9927;47.792;10.616;2022-11-15T15:09:48;7.20;;;5.55;;
19560;SDS011;9927;47.792;10.616;2022-11-15T15:12:20;8.07;;;5.70;;
19560;SDS011;9927;47.792;10.616;2022-11-15T15:14:50;9.77;;;5.88;;
19560;SDS011;9927;47.792;10.616;2022-11-15T15:17:17;9.48;;;5.80;;
19560;SDS011;9927;47.792;10.616;2022-11-15T15:19:44;6.45;;;5.50;;
19560;SDS011;9927;47.792;10.616;2022-11-15T15:22:15;8.20;;;5.47;;
19560;SDS011;9927;47.792;10.616;2022-11-15T15:24:44;7.85;;;5.57;;
19560;SDS011;9927;47.792;10.616;2022-11-15T15:27:12;8.02;;;5.95;;
19560;SDS011;9927;47.792;10.616;2022-11-15T15:29:39;7.05;;;5.82;;
19560;SDS011;9927;47.792;10.616;2022-11-15T15:32:08;5.72;;;5.20;;
19560;SDS011;9927;47.792;10.616;2022-11-15T15:34:35;8.00;;;6.03;;
19560;SDS011;9927;47.792;10.616;2022-11-15T15:37:19;8.35;;;6.05;;
19560;SDS011;9927;47.792;10.616;2022-11-15T15:39:55;8.85;;;6.95;;
19560;SDS011;9927;47.792;10.616;2022-11-15T15:42:23;10.05;;;7.10;;
19560;SDS011;9927;47.792;10.616;2022-11-15T15:44:50;13.00;;;7.35;;
19560;SDS011;9927;47.792;10.616;2022-11-15T15:47:22;9.13;;;6.88;;
19560;SDS011;9927;47.792;10.616;2022-11-15T15:49:50;7.30;;;6.50;;
19560;SDS011;9927;47.792;10.616;2022-11-15T15:52:17;9.73;;;7.05;;
19560;SDS011;9927;47.792;10.616;2022-11-15T15:54:44;9.63;;;7.40;;
19560;SDS011;9927;47.792;10.616;2022-11-15T15:57:12;12.27;;;8.68;;
19560;SDS011;9927;47.792;10.616;2022-11-15T15:59:40;17.63;;;12.23;;
19560;SDS011;9927;47.792;10.616;2022-11-15T16:02:09;22.88;;;15.48;;
19560;SDS011;9927;47.792;10.616;2022-11-15T16:04:38;23.25;;;15.25;;
19560;SDS011;9927;47.792;10.616;2022-11-15T16:07:07;19.27;;;13.30;;
19560;SDS011;9927;47.792;10.616;2022-11-15T16:09:44;28.70;;;19.20;;
19560;SDS011;9927;47.792;10.616;2022-11-15T16:12:27;30.60;;;20.85;;
19560;SDS011;9927;47.792;10.616;2022-11-15T16:14:54;30.55;;;20.55;;
19560;SDS011;9927;47.792;10.616;2022-11-15T16:17:22;32.35;;;20.00;;
19560;SDS011;9927;47.792;10.616;2022-11-15T16:19:59;21.30;;;14.68;;
19560;SDS011;9927;47.792;10.616;2022-11-15T16:22:26;12.75;;;9.13;;
19560;SDS011;9927;47.792;10.616;2022-11-15T16:24:55;11.43;;;8.20;;
19560;SDS011;9927;47.792;10.616;2022-11-15T16:27:23;12.00;;;7.70;;
19560;SDS011;9927;47.792;10.616;2022-11-15T16:29:50;9.75;;;6.90;;
19560;SDS011;9927;47.792;10.616;2022-11-15T16:32:18;14.15;;;7.03;;
19560;SDS011;9927;47.792;10.616;2022-11-15T16:34:45;9.98;;;7.07;;
19560;SDS011;9927;47.792;10.616;2022-11-15T16:37:20;11.77;;;6.65;;
19560;SDS011;9927;47.792;10.616;2022-11-15T16:39:49;11.30;;;7.60;;
19560;SDS011;9927;47.792;10.616;2022-11-15T16:42:16;17.27;;;8.13;;
19560;SDS011;9927;47.792;10.616;2022-11-15T16:44:44;13.52;;;8.02;;
19560;SDS011;9927;47.792;10.616;2022-11-15T16:47:18;11.07;;;7.78;;
19560;SDS011;9927;47.792;10.616;2022-11-15T16:49:48;10.88;;;7.60;;
19560;SDS011;9927;47.792;10.616;2022-11-15T16:52:16;13.02;;;8.02;;
19560;SDS011;9927;47.792;10.616;2022-11-15T16:54:47;12.70;;;7.90;;
19560;SDS011;9927;47.792;10.616;2022-11-15T16:57:14;9.98;;;7.50;;
19560;SDS011;9927;47.792;10.616;2022-11-15T16:59:42;8.43;;;6.85;;
19560;SDS011;9927;47.792;10.616;2022-11-15T17:02:12;9.10;;;7.40;;
19560;SDS011;9927;47.792;10.616;2022-11-15T17:04:40;17.10;;;9.90;;
19560;SDS011;9927;47.792;10.616;2022-11-15T17:07:07;23.83;;;10.48;;
19560;SDS011;9927;47.792;10.616;2022-11-15T17:09:35;17.65;;;10.70;;
19560;SDS011;9927;47.792;10.616;2022-11-15T17:12:02;19.55;;;11.35;;
19560;SDS011;9927;47.792;10.616;2022-11-15T17:14:29;19.35;;;11.60;;
19560;SDS011;9927;47.792;10.616;2022-11-15T17:16:57;23.98;;;13.23;;
19560;SDS011;9927;47.792;10.616;2022-11-15T17:19:24;18.35;;;11.43;;
19560;SDS011;9927;47.792;10.616;2022-11-15T17:21:51;19.92;;;12.63;;
19560;SDS011;9927;47.792;10.616;2022-11-15T17:24:19;19.60;;;13.27;;
19560;SDS011;9927;47.792;10.616;2022-11-15T17:26:46;15.15;;;11.35;;
19560;SDS011;9927;47.792;10.616;2022-11-15T17:29:14;14.05;;;10.85;;
19560;SDS011;9927;47.792;10.616;2022-11-15T17:31:41;15.52;;;11.20;;
19560;SDS011;9927;47.792;10.616;2022-11-15T17:34:08;21.35;;;12.20;;
19560;SDS011;9927;47.792;10.616;2022-11-15T17:36:35;19.10;;;12.32;;
19560;SDS011;9927;47.792;10.616;2022-11-15T17:39:03;22.10;;;10.13;;
19560;SDS011;9927;47.792;10.616;2022-11-15T17:41:30;17.05;;;10.18;;
19560;SDS011;9927;47.792;10.616;2022-11-15T17:43:58;13.35;;;8.90;;
19560;SDS011;9927;47.792;10.616;2022-11-15T17:46:26;13.20;;;9.25;;
19560;SDS011;9927;47.792;10.616;2022-11-15T17:48:54;13.60;;;9.10;;
19560;SDS011;9927;47.792;10.616;2022-11-15T17:51:22;12.43;;;8.57;;
19560;SDS011;9927;47.792;10.616;2022-11-15T17:53:50;11.93;;;9.27;;
19560;SDS011;9927;47.792;10.616;2022-11-15T17:56:18;18.60;;;9.95;;
19560;SDS011;9927;47.792;10.616;2022-11-15T17:58:50;16.33;;;10.27;;
19560;SDS011;9927;47.792;10.616;2022-11-15T18:01:20;15.98;;;10.10;;
19560;SDS011;9927;47.792;10.616;2022-11-15T18:03:54;15.73;;;10.43;;
19560;SDS011;9927;47.792;10.616;2022-11-15T18:06:22;15.00;;;9.73;;
19560;SDS011;9927;47.792;10.616;2022-11-15T18:08:51;17.83;;;10.43;;
19560;SDS011;9927;47.792;10.616;2022-11-15T18:11:22;20.15;;;11.02;;
19560;SDS011;9927;47.792;10.616;2022-11-15T18:13:58;13.65;;;10.05;;
19560;SDS011;9927;47.792;10.616;2022-11-15T18:16:27;15.65;;;10.43;;
19560;SDS011;9927;47.792;10.616;2022-11-15T18:18:56;14.10;;;10.70;;
19560;SDS011;9927;47.792;10.616;2022-11-15T18:21:28;14.70;;;10.80;;
19560;SDS011;9927;47.792;10.616;2022-11-15T18:23:57;16.65;;;11.02;;
19560;SDS011;9927;47.792;10.616;2022-11-15T18:26:26;17.60;;;11.65;;
19560;SDS011;9927;47.792;10.616;2022-11-15T18:28:56;15.43;;;11.43;;
19560;SDS011;9927;47.792;10.616;2022-11-15T18:31:29;17.38;;;12.43;;
19560;SDS011;9927;47.792;10.616;2022-11-15T18:33:57;17.92;;;11.63;;
19560;SDS011;9927;47.792;10.616;2022-11-15T18:36:26;17.40;;;12.68;;
19560;SDS011;9927;47.792;10.616;2022-11-15T18:38:55;24.17;;;14.43;;
19560;SDS011;9927;47.792;10.616;2022-11-15T18:41:24;30.00;;;16.25;;
19560;SDS011;9927;47.792;10.616;2022-11-15T18:43:55;21.58;;;13.93;;
19560;SDS011;9927;47.792;10.616;2022-11-15T18:46:24;21.07;;;13.67;;
19560;SDS011;9927;47.792;10.616;2022-11-15T18:48:53;22.20;;;13.05;;
19560;SDS011;9927;47.792;10.616;2022-11-15T18:51:22;21.17;;;13.35;;
19560;SDS011;9927;47.792;10.616;2022-11-15T18:53:52;17.45;;;11.90;;
19560;SDS011;9927;47.792;10.616;2022-11-15T18:56:20;25.73;;;16.23;;
19560;SDS011;9927;47.792;10.616;2022-11-15T18:58:49;27.60;;;16.75;;
19560;SDS011;9927;47.792;10.616;2022-11-15T19:01:22;23.48;;;16.08;;
19560;SDS011;9927;47.792;10.616;2022-11-15T19:03:51;20.58;;;13.77;;
19560;SDS011;9927;47.792;10.616;2022-11-15T19:06:21;19.83;;;13.20;;
19560;SDS011;9927;47.792;10.616;2022-11-15T19:08:50;17.90;;;12.57;;
19560;SDS011;9927;47.792;10.616;2022-11-15T19:11:20;19.87;;;11.93;;
19560;SDS011;9927;47.792;10.616;2022-11-15T19:14:09;17.35;;;11.02;;
19560;SDS011;9927;47.792;10.616;2022-11-15T19:16:38;13.35;;;9.60;;
19560;SDS011;9927;47.792;10.616;2022-11-15T19:19:16;20.95;;;11.05;;
19560;SDS011;9927;47.792;10.616;2022-11-15T19:21:46;17.55;;;10.20;;
19560;SDS011;9927;47.792;10.616;2022-11-15T19:24:13;16.20;;;10.60;;
19560;SDS011;9927;47.792;10.616;2022-11-15T19:26:41;19.05;;;13.02;;
19560;SDS011;9927;47.792;10.616;2022-11-15T19:29:08;18.88;;;12.98;;
19560;SDS011;9927;47.792;10.616;2022-11-15T19:31:36;18.23;;;11.63;;
19560;SDS011;9927;47.792;10.616;2022-11-15T19:34:04;16.33;;;10.85;;
19560;SDS011;9927;47.792;10.616;2022-11-15T19:36:38;20.10;;;12.47;;
19560;SDS011;9927;47.792;10.616;2022-11-15T19:39:13;24.10;;;14.30;;
19560;SDS011;9927;47.792;10.616;2022-11-15T19:41:43;27.20;;;15.23;;
19560;SDS011;9927;47.792;10.616;2022-11-15T19:44:11;19.47;;;13.37;;
19560;SDS011;9927;47.792;10.616;2022-11-15T19:46:38;22.83;;;14.37;;
19560;SDS011;9927;47.792;10.616;2022-11-15T19:49:06;28.50;;;17.13;;
19560;SDS011;9927;47.792;10.616;2022-11-15T19:51:37;27.40;;;16.03;;
19560;SDS011;9927;47.792;10.616;2022-11-15T19:54:07;24.37;;;14.67;;
19560;SDS011;9927;47.792;10.616;2022-11-15T19:56:35;24.37;;;14.70;;
19560;SDS011;9927;47.792;10.616;2022-11-15T19:59:03;24.67;;;14.27;;
19560;SDS011;9927;47.792;10.616;2022-11-15T20:01:32;18.70;;;12.20;;
19560;SDS011;9927;47.792;10.616;2022-11-15T20:04:02;19.40;;;11.37;;
19560;SDS011;9927;47.792;10.616;2022-11-15T20:06:33;14.63;;;10.70;;
19560;SDS011;9927;47.792;10.616;2022-11-15T20:09:03;16.97;;;11.03;;
19560;SDS011;9927;47.792;10.616;2022-11-15T20:11:30;15.82;;;10.70;;
19560;SDS011;9927;47.792;10.616;2022-11-15T20:13:59;18.15;;;11.15;;
19560;SDS011;9927;47.792;10.616;2022-11-15T20:16:30;15.82;;;10.90;;
19560;SDS011;9927;47.792;10.616;2022-11-15T20:18:57;14.88;;;10.90;;
19560;SDS011;9927;47.792;10.616;2022-11-15T20:21:25;14.93;;;10.80;;
19560;SDS011;9927;47.792;10.616;2022-11-15T20:23:52;19.08;;;11.70;;
19560;SDS011;9927;47.792;10.616;2022-11-15T20:26:19;14.05;;;9.73;;
19560;SDS011;9927;47.792;10.616;2022-11-15T20:28:47;16.90;;;11.27;;
19560;SDS011;9927;47.792;10.616;2022-11-15T20:31:15;15.55;;;11.05;;
19560;SDS011;9927;47.792;10.616;2022-11-15T20:33:43;19.60;;;12.03;;
19560;SDS011;9927;47.792;10.616;2022-11-15T20:36:11;17.30;;;11.30;;
19560;SDS011;9927;47.792;10.616;2022-11-15T20:38:40;21.23;;;13.87;;
19560;SDS011;9927;47.792;10.616;2022-11-15T20:41:09;16.00;;;11.93;;
19560;SDS011;9927;47.792;10.616;2022-11-15T20:43:40;17.30;;;13.60;;
19560;SDS011;9927;47.792;10.616;2022-11-15T20:46:10;19.57;;;12.90;;